Time;durP1;ratioP1;P1;durP2;ratioP2;P2;SDS_P1;SDS_P2;PMS_P1;PMS_P2;Temp;Humidity;BMP_temperature;BMP_pressure;BME280_temperature;BME280_humidity;BME280_pressure;Samples;Min_cycle;Max_cycle;Signal;HPM_P1;HPM_P2
2021/09/03 00:00:08;;;;;;;4.18;2.85;;;;;;;22.60;33.51;100006.56;5014350;28;20029;-75
2021/09/03 00:02:37;;;;;;;6.25;3.22;;;;;;;22.70;33.53;100029.06;5013964;28;20026;-75
2021/09/03 00:05:05;;;;;;;3.75;3.08;;;;;;;22.38;33.75;99993.84;5013940;28;20026;-75
2021/09/03 00:07:31;;;;;;;5.95;3.35;;;;;;;22.23;33.77;99961.28;5014172;28;20025;-75
2021/09/03 00:09:56;;;;;;;4.30;3.10;;;;;;;22.61;33.70;100029.72;5014440;28;20041;-75
2021/09/03 00:12:22;;;;;;;4.20;3.28;;;;;;;22.67;33.81;100051.09;5012748;28;20080;-75
2021/09/03 00:14:48;;;;;;;6.40;3.40;;;;;;;22.55;33.77;100017.25;5013771;28;20049;-75
2021/09/03 00:17:14;;;;;;;7.95;3.95;;;;;;;22.76;33.74;100049.63;5013821;28;20022;-75
2021/09/03 00:19:39;;;;;;;5.22;3.55;;;;;;;22.45;33.72;100007.16;5013710;28;20113;-75
2021/09/03 00:22:05;;;;;;;4.40;3.30;;;;;;;22.70;33.88;100039.84;5013842;28;20494;-75
2021/09/03 00:24:30;;;;;;;4.60;3.47;;;;;;;22.55;33.70;100014.56;5013802;28;20498;-75
2021/09/03 00:26:55;;;;;;;5.75;3.78;;;;;;;22.37;33.83;99992.22;5013601;28;20510;-75
2021/09/03 00:29:21;;;;;;;5.10;3.47;;;;;;;22.58;34.24;100047.19;5013713;28;20017;-75
2021/09/03 00:31:46;;;;;;;3.20;2.90;;;;;;;22.58;34.19;100052.56;5012244;28;20025;-75
2021/09/03 00:34:12;;;;;;;3.25;2.95;;;;;;;22.12;34.39;99989.88;5013534;28;20143;-75
2021/09/03 00:36:37;;;;;;;5.78;3.38;;;;;;;22.51;34.41;100041.97;5013462;28;20117;-75
2021/09/03 00:39:03;;;;;;;5.18;3.50;;;;;;;22.27;34.67;100013.53;5012127;28;20029;-75
2021/09/03 00:41:28;;;;;;;4.05;3.17;;;;;;;22.50;34.62;100056.47;5012112;28;20053;-75
2021/09/03 00:43:54;;;;;;;3.70;3.25;;;;;;;22.27;34.96;100024.31;5013156;28;20113;-74
2021/09/03 00:46:19;;;;;;;3.58;3.03;;;;;;;22.36;34.97;100051.66;5013188;28;20497;-75
2021/09/03 00:48:45;;;;;;;4.63;3.28;;;;;;;22.33;35.06;100052.16;5013146;28;20072;-75
2021/09/03 00:51:10;;;;;;;6.18;3.65;;;;;;;22.07;35.04;100008.63;5013093;28;20024;-75
2021/09/03 00:53:36;;;;;;;4.35;3.67;;;;;;;22.07;35.11;100008.63;5012997;28;20080;-76
2021/09/03 00:56:02;;;;;;;4.43;3.30;;;;;;;21.98;35.25;100010.03;5012922;28;20026;-75
2021/09/03 00:58:28;;;;;;;5.72;3.65;;;;;;;21.81;35.29;99993.06;5013170;28;20450;-75
2021/09/03 01:00:53;;;;;;;6.20;3.63;;;;;;;22.17;35.48;100053.72;5013026;28;20458;-75
2021/09/03 01:03:19;;;;;;;5.50;3.70;;;;;;;22.16;35.57;100057.47;5011714;28;20025;-75
2021/09/03 01:05:45;;;;;;;3.30;3.00;;;;;;;22.06;35.61;100044.66;5012728;28;20044;-75
2021/09/03 01:08:11;;;;;;;3.92;3.33;;;;;;;21.91;35.51;100022.81;5012601;28;20030;-75
2021/09/03 01:10:37;;;;;;;4.28;3.13;;;;;;;22.03;35.63;100061.25;5012684;28;20028;-75
2021/09/03 01:13:03;;;;;;;6.25;3.63;;;;;;;21.85;35.77;100029.97;5011405;28;20050;-75
2021/09/03 01:15:29;;;;;;;3.95;3.50;;;;;;;21.84;35.83;100031.03;5012796;28;20026;-75
2021/09/03 01:17:54;;;;;;;5.55;3.65;;;;;;;21.82;36.05;100035.84;5011398;28;20049;-75
2021/09/03 01:20:19;;;;;;;3.65;3.20;;;;;;;21.46;35.93;99967.09;5012658;28;20030;-75
2021/09/03 01:22:45;;;;;;;4.45;2.97;;;;;;;21.95;35.94;100052.72;5012610;28;20017;-75
2021/09/03 01:25:11;;;;;;;4.63;3.25;;;;;;;21.97;35.89;100051.44;5011553;28;20057;-75
2021/09/03 01:27:38;;;;;;;4.43;3.38;;;;;;;21.73;36.07;100020.31;5012438;28;20022;-75
2021/09/03 01:30:06;;;;;;;4.45;3.50;;;;;;;21.96;35.98;100052.50;5012258;28;20049;-74
2021/09/03 01:32:32;;;;;;;6.03;3.78;;;;;;;21.79;36.07;100035.50;5012295;28;20025;-75
2021/09/03 01:34:57;;;;;;;4.68;3.60;;;;;;;21.75;36.22;100037.03;5011048;28;20048;-75
2021/09/03 01:37:23;;;;;;;4.38;3.80;;;;;;;21.68;36.45;100047.91;5011151;28;20030;-75
2021/09/03 01:39:48;;;;;;;6.30;3.80;;;;;;;21.69;36.56;100059.47;5012332;28;20080;-75
2021/09/03 01:42:14;;;;;;;4.90;3.83;;;;;;;21.69;36.78;100063.00;5012105;28;20036;-75
2021/09/03 01:44:40;;;;;;;6.47;3.60;;;;;;;21.66;36.58;100049.22;5012166;28;20030;-75
2021/09/03 01:47:05;;;;;;;4.28;3.35;;;;;;;21.69;36.69;100051.41;5010933;28;20026;-75
2021/09/03 01:49:30;;;;;;;5.60;3.85;;;;;;;21.50;36.50;100031.94;5012379;28;20026;-74
2021/09/03 01:51:56;;;;;;;7.50;4.25;;;;;;;21.76;36.66;100060.97;5012185;28;20453;-75
2021/09/03 01:54:21;;;;;;;5.10;3.78;;;;;;;21.50;36.77;100021.19;5012189;28;20021;-75
2021/09/03 01:56:47;;;;;;;6.25;3.67;;;;;;;21.49;36.86;100023.06;5012095;28;20030;-75
2021/09/03 01:59:12;;;;;;;4.13;3.70;;;;;;;21.37;36.69;100016.88;5012060;28;20505;-75
2021/09/03 02:01:37;;;;;;;4.82;3.63;;;;;;;21.69;36.92;100060.31;5011985;28;20022;-75
2021/09/03 02:04:03;;;;;;;3.83;3.22;;;;;;;21.69;37.27;100064.84;5012203;28;20498;-75
2021/09/03 02:06:28;;;;;;;5.30;3.13;;;;;;;21.66;36.90;100046.53;5011746;28;20049;-75
2021/09/03 02:08:54;;;;;;;5.45;3.80;;;;;;;21.46;37.05;100023.53;5011772;28;20022;-75
2021/09/03 02:11:19;;;;;;;4.85;3.65;;;;;;;21.27;37.13;99984.44;5011937;28;20021;-74
2021/09/03 02:13:45;;;;;;;7.78;3.72;;;;;;;21.74;36.96;100054.22;5010420;28;20042;-75
2021/09/03 02:16:10;;;;;;;6.15;3.55;;;;;;;21.44;36.97;100006.00;5011708;28;20022;-75
2021/09/03 02:18:36;;;;;;;6.00;3.40;;;;;;;21.71;37.01;100052.81;5010814;28;20035;-75
2021/09/03 02:21:02;;;;;;;5.88;4.22;;;;;;;21.68;37.07;100042.53;5011543;28;20026;-75
2021/09/03 02:23:28;;;;;;;5.95;4.00;;;;;;;21.69;37.18;100048.72;5011838;28;20033;-75
2021/09/03 02:25:53;;;;;;;7.38;3.97;;;;;;;21.71;37.30;100057.38;5011800;28;20104;-75
2021/09/03 02:28:18;;;;;;;6.88;3.40;;;;;;;21.21;37.07;99971.94;5011755;28;20533;-75
2021/09/03 02:30:45;;;;;;;5.53;3.83;;;;;;;21.55;37.29;100019.44;5011565;28;20445;-75
2021/09/03 02:33:11;;;;;;;7.38;4.28;;;;;;;21.70;37.35;100045.00;5011587;28;20025;-75
2021/09/03 02:35:37;;;;;;;5.22;3.75;;;;;;;21.19;37.24;99979.41;5011555;28;20061;-75
2021/09/03 02:38:02;;;;;;;4.50;3.58;;;;;;;21.15;37.20;99976.38;5010254;28;20061;-75
2021/09/03 02:40:28;;;;;;;4.13;3.72;;;;;;;21.69;37.20;100043.34;5011398;28;20026;-75
2021/09/03 02:42:54;;;;;;;7.13;3.90;;;;;;;21.37;37.24;100014.22;5011188;28;20022;-75
2021/09/03 02:45:20;;;;;;;5.38;3.88;;;;;;;21.71;37.06;100062.75;5009898;28;20018;-75
2021/09/03 02:47:45;;;;;;;5.63;4.13;;;;;;;21.72;37.15;100051.75;5009888;28;20022;-74
2021/09/03 02:50:11;;;;;;;4.35;3.78;;;;;;;21.04;37.07;99962.97;5011229;28;20033;-75
2021/09/03 02:52:36;;;;;;;4.85;3.95;;;;;;;21.58;37.04;100046.91;5011493;28;20548;-75
2021/09/03 02:55:03;;;;;;;4.70;3.70;;;;;;;21.70;37.22;100061.13;5011278;28;20060;-75
2021/09/03 02:57:28;;;;;;;6.82;4.32;;;;;;;21.72;37.32;100059.00;5011403;28;20028;-75
2021/09/03 02:59:54;;;;;;;4.32;3.92;;;;;;;21.64;37.08;100041.38;5011336;28;20038;-75
2021/09/03 03:02:19;;;;;;;5.10;3.83;;;;;;;21.16;37.27;99974.53;5011336;28;20044;-75
2021/09/03 03:04:45;;;;;;;4.75;3.53;;;;;;;21.70;37.31;100077.25;5011479;28;20022;-75
2021/09/03 03:07:10;;;;;;;5.75;4.25;;;;;;;21.68;37.35;100065.91;5011191;28;20021;-75
2021/09/03 03:09:36;;;;;;;7.28;3.92;;;;;;;21.63;37.42;100060.44;5010189;28;20421;-75
2021/09/03 03:12:01;;;;;;;5.20;3.65;;;;;;;21.51;37.43;100042.44;5010114;28;20545;-75
2021/09/03 03:14:28;;;;;;;5.68;4.35;;;;;;;21.55;37.69;100059.75;5010926;28;20042;-76
2021/09/03 03:16:55;;;;;;;4.40;3.80;;;;;;;20.97;37.82;99992.63;5009844;28;20080;-75
2021/09/03 03:19:21;;;;;;;5.05;4.28;;;;;;;21.03;37.85;100023.91;5011119;28;20049;-75
2021/09/03 03:21:47;;;;;;;6.00;4.35;;;;;;;20.99;37.98;100013.88;5011175;28;20021;-74
2021/09/03 03:24:12;;;;;;;6.10;4.13;;;;;;;20.89;38.26;100001.88;5011161;28;20422;-75
2021/09/03 03:26:37;;;;;;;6.32;4.30;;;;;;;20.99;38.30;100017.38;5011112;28;20029;-75
2021/09/03 03:29:03;;;;;;;5.10;3.75;;;;;;;21.00;38.40;100005.59;5011871;28;20026;-75
2021/09/03 03:31:31;;;;;;;5.20;4.00;;;;;;;21.11;38.38;100030.81;5014868;28;20018;-75
2021/09/03 03:34:00;;;;;;;6.15;4.55;;;;;;;20.73;38.40;99981.06;5013561;28;20161;-75
2021/09/03 03:36:25;;;;;;;5.40;4.25;;;;;;;21.27;38.54;100073.09;5014757;28;20060;-75
2021/09/03 03:38:51;;;;;;;7.10;4.43;;;;;;;21.00;38.55;100031.63;5013433;28;20057;-75
2021/09/03 03:41:17;;;;;;;5.03;3.88;;;;;;;20.74;38.63;99982.69;5013162;28;20022;-75
2021/09/03 03:43:42;;;;;;;5.53;4.25;;;;;;;21.08;38.47;100050.88;5014384;28;20026;-75
2021/09/03 03:46:08;;;;;;;6.00;4.38;;;;;;;21.31;38.59;100085.00;5014363;28;20022;-74
2021/09/03 03:48:33;;;;;;;6.03;4.07;;;;;;;21.35;38.62;100085.34;5014460;28;20022;-75
2021/09/03 03:50:59;;;;;;;5.50;4.47;;;;;;;21.39;38.54;100089.19;5014451;28;20491;-75
2021/09/03 03:53:24;;;;;;;6.25;4.20;;;;;;;21.35;38.40;100091.53;5014290;28;20026;-75
2021/09/03 03:55:50;;;;;;;6.70;4.35;;;;;;;21.36;38.45;100093.16;5014079;28;20030;-75
2021/09/03 03:58:17;;;;;;;5.57;4.20;;;;;;;21.29;38.74;100089.78;5014250;28;20414;-75
2021/09/03 04:00:42;;;;;;;7.03;4.22;;;;;;;21.31;38.64;100089.53;5014304;28;20022;-75
2021/09/03 04:03:08;;;;;;;7.57;4.03;;;;;;;21.01;38.71;100065.47;5014093;28;20026;-75
2021/09/03 04:05:33;;;;;;;7.68;4.00;;;;;;;20.91;38.78;100037.34;5014207;28;20014;-74
2021/09/03 04:07:58;;;;;;;6.35;4.40;;;;;;;21.32;38.83;100100.06;5014020;28;20494;-75
2021/09/03 04:10:24;;;;;;;5.97;4.38;;;;;;;21.15;38.87;100081.13;5014124;28;20112;-76
2021/09/03 04:12:50;;;;;;;7.00;4.80;;;;;;;21.40;38.61;100104.25;5012386;28;20498;-75
2021/09/03 04:15:16;;;;;;;5.43;4.10;;;;;;;21.37;38.60;100100.16;5013715;28;20033;-75
2021/09/03 04:17:41;;;;;;;8.95;4.78;;;;;;;21.37;38.66;100115.47;5013908;28;20418;-75
2021/09/03 04:20:07;;;;;;;9.05;4.72;;;;;;;21.40;38.49;100115.81;5013978;28;20104;-74
2021/09/03 04:22:33;;;;;;;8.52;4.20;;;;;;;21.39;38.69;100102.63;5013774;28;20017;-75
2021/09/03 04:24:58;;;;;;;7.63;4.38;;;;;;;21.15;38.56;100056.13;5013581;28;20545;-75
2021/09/03 04:27:24;;;;;;;5.75;4.15;;;;;;;21.21;38.35;100064.06;5012187;28;20188;-75
2021/09/03 04:29:49;;;;;;;6.72;4.03;;;;;;;21.15;38.51;100067.69;5013759;28;20029;-75
2021/09/03 04:32:14;;;;;;;8.48;4.82;;;;;;;21.38;38.55;100091.06;5013480;28;20033;-75
2021/09/03 04:34:40;;;;;;;5.95;4.65;;;;;;;21.40;38.52;100099.69;5013405;28;20022;-74
2021/09/03 04:37:06;;;;;;;11.05;5.07;;;;;;;21.39;38.68;100090.00;5013356;28;20487;-76
2021/09/03 04:39:32;;;;;;;7.05;4.60;;;;;;;21.16;38.70;100061.25;5013488;28;20071;-75
2021/09/03 04:41:58;;;;;;;7.55;4.60;;;;;;;21.42;38.88;100094.09;5012740;28;20524;-76
2021/09/03 04:44:23;;;;;;;5.97;4.65;;;;;;;21.39;38.78;100087.31;5011884;28;20022;-75
2021/09/03 04:46:48;;;;;;;9.18;5.35;;;;;;;21.17;38.75;100048.66;5013167;28;20022;-76
2021/09/03 04:49:14;;;;;;;9.43;4.57;;;;;;;21.49;38.84;100092.91;5013083;28;20026;-77
2021/09/03 04:51:39;;;;;;;13.07;5.03;;;;;;;21.22;38.67;100046.94;5013125;28;20124;-76
2021/09/03 04:54:05;;;;;;;14.32;5.88;;;;;;;21.37;38.67;100075.16;5013217;28;20050;-73
2021/09/03 04:56:30;;;;;;;8.25;5.13;;;;;;;21.62;38.73;100105.31;5012933;28;20025;-73
2021/09/03 04:58:56;;;;;;;12.48;5.88;;;;;;;21.38;38.89;100068.75;5013008;28;20546;-74
2021/09/03 05:01:21;;;;;;;14.55;6.15;;;;;;;21.40;38.72;100070.16;5012874;28;20018;-73
2021/09/03 05:03:48;;;;;;;12.85;5.40;;;;;;;21.68;38.83;100116.97;5012904;28;20475;-75
2021/09/03 05:06:15;;;;;;;13.95;5.63;;;;;;;21.65;38.82;100118.28;5012953;28;20391;-75
2021/09/03 05:08:40;;;;;;;14.15;4.90;;;;;;;21.19;38.55;100033.13;5012867;28;20030;-77
2021/09/03 05:11:06;;;;;;;13.00;6.15;;;;;;;21.28;38.88;100047.84;5012728;28;20029;-76
2021/09/03 05:13:31;;;;;;;11.95;4.63;;;;;;;21.72;38.89;100118.13;5011306;28;20045;-75
2021/09/03 05:15:57;;;;;;;12.15;5.30;;;;;;;21.48;39.24;100075.16;5012650;28;20026;-76
2021/09/03 05:18:22;;;;;;;14.75;5.93;;;;;;;21.51;39.21;100084.63;5012631;28;20449;-76
2021/09/03 05:20:48;;;;;;;12.60;5.40;;;;;;;21.73;39.18;100122.47;5011376;28;20022;-75
2021/09/03 05:23:13;;;;;;;10.63;5.45;;;;;;;21.59;39.35;100121.09;5012592;28;20022;-76
2021/09/03 05:25:38;;;;;;;8.88;5.53;;;;;;;21.67;39.29;100131.47;5012455;28;20014;-76
2021/09/03 05:28:04;;;;;;;12.25;5.30;;;;;;;21.47;39.18;100105.75;5011205;28;20030;-74
2021/09/03 05:30:29;;;;;;;8.68;3.90;;;;;;;21.24;39.21;100076.25;5012370;28;20064;-76
2021/09/03 05:32:55;;;;;;;7.30;4.60;;;;;;;21.58;39.33;100139.06;5012404;28;20026;-76
2021/09/03 05:35:24;;;;;;;12.60;5.20;;;;;;;21.24;39.38;100105.78;5012333;28;20048;-74
2021/09/03 05:37:50;;;;;;;7.80;4.15;;;;;;;21.59;39.32;100153.31;5013285;28;20490;-76
2021/09/03 05:40:15;;;;;;;8.10;4.95;;;;;;;21.56;39.15;100152.75;5011349;28;20029;-75
2021/09/03 05:42:41;;;;;;;7.13;4.25;;;;;;;21.55;39.40;100151.13;5023702;28;20107;-76
2021/09/03 05:45:07;;;;;;;13.82;4.10;;;;;;;21.61;39.24;100154.72;5011828;28;20022;-75
2021/09/03 05:47:33;;;;;;;9.45;4.88;;;;;;;21.49;39.23;100129.72;5013396;28;20112;-75
2021/09/03 05:49:58;;;;;;;12.00;4.43;;;;;;;21.74;39.28;100165.22;5020028;28;20414;-76
2021/09/03 05:52:24;;;;;;;7.53;4.40;;;;;;;21.80;39.09;100172.34;5022195;28;20071;-74
2021/09/03 05:54:49;;;;;;;5.80;4.18;;;;;;;21.50;38.91;100123.28;5010425;28;20509;-75
2021/09/03 05:57:15;;;;;;;9.25;4.38;;;;;;;21.81;38.98;100165.91;5021500;28;20026;-75
2021/09/03 05:59:40;;;;;;;8.40;4.60;;;;;;;21.64;39.32;100137.31;5029330;28;20017;-75
2021/09/03 06:02:06;;;;;;;9.63;5.00;;;;;;;21.89;39.35;100170.13;5031472;28;20047;-75
2021/09/03 06:04:31;;;;;;;9.23;4.80;;;;;;;21.93;39.23;100175.84;5031538;28;20021;-76
2021/09/03 06:06:56;;;;;;;6.93;3.92;;;;;;;21.56;39.21;100114.31;5016309;28;20100;-76
2021/09/03 06:09:22;;;;;;;7.57;4.07;;;;;;;21.77;39.14;100148.63;5031494;28;20029;-75
2021/09/03 06:11:47;;;;;;;7.30;4.15;;;;;;;21.82;39.01;100147.91;5031546;28;20036;-75
2021/09/03 06:14:13;;;;;;;7.60;3.67;;;;;;;22.08;39.22;100184.25;5031282;28;20045;-75
2021/09/03 06:16:38;;;;;;;7.47;4.90;;;;;;;22.13;39.32;100189.72;5031128;28;20542;-76
2021/09/03 06:19:04;;;;;;;7.85;4.72;;;;;;;22.15;38.92;100184.94;5031243;28;20041;-75
2021/09/03 06:21:29;;;;;;;7.50;4.45;;;;;;;22.07;38.84;100193.38;5031308;28;20035;-75
2021/09/03 06:23:55;;;;;;;6.70;4.45;;;;;;;21.38;39.16;100085.69;5031450;28;20021;-81
2021/09/03 06:26:20;;;;;;;11.68;5.15;;;;;;;21.70;38.78;100125.63;5023515;28;20050;-82
2021/09/03 06:28:46;;;;;;;8.35;4.47;;;;;;;22.23;38.37;100198.00;5010650;28;20029;-80
2021/09/03 06:31:11;;;;;;;6.05;4.32;;;;;;;21.88;37.85;100130.84;5020842;28;20020;-81
2021/09/03 06:33:37;;;;;;;8.20;6.20;;;;;;;22.11;37.91;100170.31;5021669;28;20172;-81
2021/09/03 06:36:02;;;;;;;10.77;7.20;;;;;;;22.40;37.57;100203.47;5018420;28;22124;-81
2021/09/03 06:38:28;;;;;;;9.77;5.40;;;;;;;22.38;37.75;100194.84;5015829;28;20100;-82
2021/09/03 06:40:53;;;;;;;18.65;5.57;;;;;;;22.47;37.80;100204.16;5021442;28;20033;-81
2021/09/03 06:43:19;;;;;;;37.08;6.45;;;;;;;22.52;37.67;100215.84;5014867;28;20025;-81
2021/09/03 06:45:44;;;;;;;147.82;15.07;;;;;;;22.39;37.56;100175.75;5018164;28;20095;-81
2021/09/03 06:48:10;;;;;;;255.10;22.30;;;;;;;22.62;37.25;100198.25;5019614;28;20488;-81
2021/09/03 06:50:35;;;;;;;110.60;11.85;;;;;;;22.34;36.72;100132.63;5015845;28;20025;-81
2021/09/03 06:53:00;;;;;;;135.90;13.05;;;;;;;22.60;36.39;100158.13;5025045;28;20026;-81
2021/09/03 06:55:26;;;;;;;32.15;4.95;;;;;;;22.56;36.16;100140.00;5024096;28;20057;-81
2021/09/03 06:57:52;;;;;;;147.02;13.00;;;;;;;23.05;36.27;100208.50;5019318;28;20461;-81
2021/09/03 07:00:17;;;;;;;14.02;4.30;;;;;;;22.99;35.93;100193.28;5026716;28;20032;-81
2021/09/03 07:02:42;;;;;;;281.00;24.20;;;;;;;;;;5025115;28;20139;-80
2021/09/03 07:05:11;;;;;;;35.25;5.25;;;;;;;22.80;36.08;100158.50;5027508;28;20025;-81
2021/09/03 07:07:37;;;;;;;414.75;35.95;;;;;;;22.75;36.36;100136.84;5025945;28;20041;-82
2021/09/03 07:10:02;;;;;;;35.50;5.95;;;;;;;23.27;36.83;100211.28;5022114;28;20601;-81
2021/09/03 07:12:28;;;;;;;73.78;9.07;;;;;;;22.98;36.48;100165.53;5013719;28;20025;-82
2021/09/03 07:14:53;;;;;;;890.33;78.40;;;;;;;23.07;36.79;100191.03;5034212;28;20179;-82
2021/09/03 07:17:18;;;;;;;58.20;9.65;;;;;;;23.13;36.93;100202.72;5032317;28;20493;-81
2021/09/03 07:19:44;;;;;;;15.15;4.75;;;;;;;22.86;36.89;100145.94;5023227;28;20025;-82
2021/09/03 07:22:10;;;;;;;10.18;4.43;;;;;;;22.95;36.75;100144.47;5022893;28;20025;-82
2021/09/03 07:24:35;;;;;;;53.03;8.77;;;;;;;22.94;36.70;100134.75;5025888;28;20053;-82
2021/09/03 07:27:01;;;;;;;10.10;6.28;;;;;;;23.16;36.82;100153.72;5017696;28;20049;-82
2021/09/03 07:29:27;;;;;;;91.18;11.18;;;;;;;23.20;36.27;100146.78;5031547;28;20040;-82
2021/09/03 07:31:52;;;;;;;82.20;11.23;;;;;;;23.61;35.98;100199.44;5032965;28;20022;-82
2021/09/03 07:34:18;;;;;;;72.95;12.55;;;;;;;23.64;36.10;100201.63;5034088;28;20032;-82
2021/09/03 07:36:43;;;;;;;9.30;3.80;;;;;;;23.73;35.51;100202.84;5033812;28;20021;-82
2021/09/03 07:39:09;;;;;;;16.35;4.15;;;;;;;23.73;35.57;100197.47;5020222;28;20550;-82
2021/09/03 07:41:34;;;;;;;13.88;3.90;;;;;;;23.82;35.65;100202.44;5034160;28;20112;-82
2021/09/03 07:44:00;;;;;;;14.65;3.97;;;;;;;23.60;35.00;100157.38;5033813;28;20026;-81
2021/09/03 07:46:25;;;;;;;13.07;4.18;;;;;;;23.88;35.32;100194.19;5034001;28;20465;-81
2021/09/03 07:48:50;;;;;;;127.00;12.63;;;;;;;23.60;34.93;100135.00;5033925;28;20052;-82
2021/09/03 07:51:16;;;;;;;39.97;6.18;;;;;;;23.54;34.98;100119.78;5032517;28;20029;-82
2021/09/03 07:53:43;;;;;;;29.63;9.10;;;;;;;24.03;35.01;100191.69;5033701;28;20037;-81
2021/09/03 07:56:08;;;;;;;7.93;3.30;;;;;;;23.98;34.78;100174.63;5032277;28;20079;-83
2021/09/03 07:58:34;;;;;;;6.70;4.03;;;;;;;23.84;34.82;100152.59;5033636;28;20530;-82
2021/09/03 08:01:02;;;;;;;6.25;4.47;;;;;;;24.00;34.52;100165.19;5033717;28;20104;-82
2021/09/03 08:03:28;;;;;;;7.93;3.95;;;;;;;23.85;34.58;100148.03;5033459;28;20028;-82
2021/09/03 08:05:54;;;;;;;120.38;10.35;;;;;;;24.25;34.61;100188.97;5033362;28;20031;-81
2021/09/03 08:08:20;;;;;;;28.35;5.03;;;;;;;24.19;34.38;100163.00;5033129;28;20410;-81
2021/09/03 08:10:46;;;;;;;35.78;7.10;;;;;;;24.31;34.19;100158.31;5033252;28;20029;-81
2021/09/03 08:13:12;;;;;;;11.43;4.80;;;;;;;24.39;34.07;100171.34;5033267;28;20041;-82
2021/09/03 08:15:39;;;;;;;16.92;4.38;;;;;;;23.91;34.22;100114.66;5015590;28;20100;-82
2021/09/03 08:18:05;;;;;;;9.45;6.78;;;;;;;24.01;34.37;100120.16;5013369;28;20026;-81
2021/09/03 08:20:32;;;;;;;6.40;5.13;;;;;;;24.50;34.61;100174.97;5013104;28;20057;-82
2021/09/03 08:22:58;;;;;;;7.68;3.72;;;;;;;24.62;34.13;100170.28;5027223;28;20491;-80
2021/09/03 08:25:24;;;;;;;6.93;4.93;;;;;;;24.61;33.92;100157.03;5021810;28;20773;-73
2021/09/03 08:27:50;;;;;;;6.15;4.15;;;;;;;24.43;33.68;100116.88;5013473;28;20034;-73
2021/09/03 08:30:16;;;;;;;563.17;47.20;;;;;;;24.58;33.32;100112.44;5013435;28;20026;-73
2021/09/03 08:32:43;;;;;;;49.63;6.75;;;;;;;24.96;33.30;100162.75;5013530;28;20029;-76
2021/09/03 08:35:08;;;;;;;12.23;5.68;;;;;;;24.95;33.15;100165.69;5013238;28;20084;-73
2021/09/03 08:37:34;;;;;;;48.78;7.05;;;;;;;24.82;33.02;100131.84;5019920;28;20029;-76
2021/09/03 08:39:59;;;;;;;55.85;5.95;;;;;;;25.06;32.86;100135.03;5022109;28;20034;-74
2021/09/03 08:42:26;;;;;;;12.55;4.88;;;;;;;25.20;32.92;100133.50;5022643;28;20018;-73
2021/09/03 08:44:52;;;;;;;8.50;4.13;;;;;;;25.29;32.76;100106.84;5027928;28;20452;-76
2021/09/03 08:47:20;;;;;;;7.15;4.90;;;;;;;25.45;32.02;100105.03;5030474;28;20132;-75
2021/09/03 08:49:46;;;;;;;6.18;4.50;;;;;;;25.77;32.23;100146.34;5013082;28;20063;-76
2021/09/03 08:52:12;;;;;;;10.77;8.32;;;;;;;25.72;31.77;100113.03;5032284;28;20026;-75
2021/09/03 08:54:37;;;;;;;7.97;5.68;;;;;;;25.80;31.72;100136.88;5032960;28;20029;-76
2021/09/03 08:57:04;;;;;;;9.75;7.88;;;;;;;25.91;31.94;100131.25;5032659;28;20049;-74
2021/09/03 08:59:30;;;;;;;6.53;4.78;;;;;;;25.95;31.77;100107.19;5017319;28;20052;-76
2021/09/03 09:02:17;;;;;;;6.05;3.90;;;;;;;25.95;31.32;100107.19;5025221;28;20486;-76
2021/09/03 09:04:45;;;;;;;49.25;6.15;;;;;;;25.92;31.70;100118.53;5022322;28;20022;-74
2021/09/03 09:07:11;;;;;;;44.15;6.80;;;;;;;26.19;31.44;100123.78;5012878;28;20021;-74
2021/09/03 09:09:42;;;;;;;5.63;4.30;;;;;;;26.18;31.08;100082.38;5014912;28;20024;-75
2021/09/03 09:12:11;;;;;;;4.72;3.15;;;;;;;26.51;30.70;100121.72;5027347;28;20021;-75
2021/09/03 09:15:06;;;;;;;4.75;3.05;;;;;;;26.60;30.64;100120.09;5022946;28;20041;-75
2021/09/03 09:17:43;;;;;;;4.95;3.65;;;;;;;26.80;30.40;100126.63;5015678;28;20030;-75
2021/09/03 09:20:11;;;;;;;7.07;5.45;;;;;;;26.69;30.31;100093.28;5012106;28;20026;-75
2021/09/03 09:22:55;;;;;;;7.25;3.90;;;;;;;27.04;29.84;100095.22;5021265;28;20416;-75
2021/09/03 09:25:28;;;;;;;8.15;4.97;;;;;;;27.46;29.83;100107.59;5031803;28;20076;-76
2021/09/03 09:27:55;;;;;;;4.47;3.25;;;;;;;27.67;29.20;100111.13;5012026;28;20461;-76
2021/09/03 09:30:27;;;;;;;12.30;11.07;;;;;;;27.47;29.20;100049.56;5012192;28;20034;-75
2021/09/03 09:33:16;;;;;;;6.38;5.72;;;;;;;27.95;29.07;100091.47;5012201;28;20030;-76
2021/09/03 09:35:58;;;;;;;10.98;5.25;;;;;;;28.15;28.98;100088.63;5012964;28;20026;-74
2021/09/03 09:38:29;;;;;;;5.05;3.92;;;;;;;28.32;27.81;100079.34;5015451;28;20026;-76
2021/09/03 09:40:57;;;;;;;6.55;4.80;;;;;;;28.48;28.14;100087.09;5011964;28;20053;-76
2021/09/03 09:43:31;;;;;;;5.43;2.90;;;;;;;28.55;27.61;100081.34;5016380;28;20040;-76
2021/09/03 09:46:25;;;;;;;4.78;3.60;;;;;;;28.78;27.44;100085.22;5023647;28;20034;-74
2021/09/03 09:48:51;;;;;;;9.15;4.20;;;;;;;28.89;27.21;100080.53;5011658;28;20038;-74
2021/09/03 09:51:38;;;;;;;5.25;4.13;;;;;;;28.90;27.18;100058.50;5030897;28;20032;-74
2021/09/03 09:54:10;;;;;;;4.43;3.08;;;;;;;29.12;26.37;100068.13;5009282;28;20056;-74
2021/09/03 09:56:51;;;;;;;4.07;2.78;;;;;;;29.31;25.95;100052.69;5025639;28;20112;-74
2021/09/03 09:59:18;;;;;;;4.60;3.17;;;;;;;29.15;26.39;100026.75;5011525;28;20077;-75
2021/09/03 10:01:49;;;;;;;21.58;17.20;;;;;;;29.47;26.13;100040.53;5010070;28;20413;-75
2021/09/03 10:04:17;;;;;;;8.80;6.90;;;;;;;29.81;25.63;100050.47;5029829;28;20052;-75
2021/09/03 10:06:44;;;;;;;10.73;7.38;;;;;;;29.92;25.36;100047.31;5029907;28;20437;-75
2021/09/03 10:09:15;;;;;;;6.50;5.03;;;;;;;29.84;25.50;100047.97;5031397;28;20091;-75
2021/09/03 10:11:42;;;;;;;;;;;;;;;29.39;25.69;100044.69;5030052;28;20033;-74
2021/09/03 10:14:09;;;;;;;6.15;3.30;;;;;;;29.02;26.50;100039.94;5030950;28;19924;-74
2021/09/03 10:16:35;;;;;;;57.88;6.80;;;;;;;28.28;26.57;99984.06;5029622;28;20041;-74
2021/09/03 10:19:04;;;;;;;97.57;9.80;;;;;;;28.87;26.16;100029.19;5031002;28;20105;-74
2021/09/03 10:21:30;;;;;;;220.50;24.63;;;;;;;29.06;26.05;100005.63;5014319;28;20029;-74
2021/09/03 10:24:06;;;;;;;58.67;8.57;;;;;;;29.51;25.71;100008.13;5011501;28;20028;-80
2021/09/03 10:26:38;;;;;;;29.45;5.30;;;;;;;29.92;24.91;100009.19;5018431;28;20102;-81
2021/09/03 10:29:24;;;;;;;57.33;6.43;;;;;;;30.12;24.07;100013.56;5010685;28;20026;-81
2021/09/03 10:32:08;;;;;;;47.72;7.53;;;;;;;30.37;24.42;100015.06;5019846;28;20112;-80
2021/09/03 10:34:39;;;;;;;84.65;9.73;;;;;;;30.65;23.92;100011.38;5019016;28;20026;-81
2021/09/03 10:37:21;;;;;;;13.98;4.43;;;;;;;30.92;23.81;100007.06;5011170;28;20475;-81
2021/09/03 10:40:09;;;;;;;132.57;11.55;;;;;;;31.14;23.58;100014.56;5032459;28;20100;-81
2021/09/03 10:42:35;;;;;;;253.00;23.80;;;;;;;31.21;23.21;100018.56;5019898;28;20017;-81
2021/09/03 10:45:09;;;;;;;113.05;11.48;;;;;;;31.29;23.10;100008.84;5009726;28;20292;-81
2021/09/03 10:47:40;;;;;;;76.07;7.55;;;;;;;31.38;23.00;99992.56;5009634;28;20021;-81
2021/09/03 10:50:21;;;;;;;15.00;3.35;;;;;;;31.58;22.82;100001.13;5017754;28;20018;-80
2021/09/03 10:53:02;;;;;;;;;;;;;;;31.80;22.75;99996.88;5010946;28;20091;-80
2021/09/03 10:55:56;;;;;;;140.55;11.50;;;;;;;32.00;22.72;99988.22;5019869;28;19928;-80
2021/09/03 10:58:52;;;;;;;38.72;4.75;;;;;;;31.42;22.04;99903.53;5013395;28;20026;-80
2021/09/03 11:01:18;;;;;;;18.40;3.70;;;;;;;32.06;22.20;99987.00;5010508;28;20109;-81
2021/09/03 11:03:58;;;;;;;9.45;3.78;;;;;;;32.17;22.23;99987.56;5009434;28;20507;-81
2021/09/03 11:06:23;;;;;;;25.13;3.40;;;;;;;32.20;21.58;99981.47;5012773;28;20403;-80
2021/09/03 11:08:50;;;;;;;5.82;3.70;;;;;;;32.08;21.73;99981.22;5025971;28;20064;-81
2021/09/03 11:11:30;;;;;;;31.52;4.40;;;;;;;32.21;21.50;99983.88;5014896;28;20104;-81
2021/09/03 11:14:01;;;;;;;3.57;2.60;;;;;;;32.35;21.46;99975.66;5030663;28;20075;-79
2021/09/03 11:16:39;;;;;;;34.83;6.30;;;;;;;32.54;21.22;99975.44;5028752;28;20505;-82
2021/09/03 11:19:08;;;;;;;28.67;5.65;;;;;;;32.66;21.11;99972.13;5030814;28;20029;-81
2021/09/03 11:21:41;;;;;;;71.68;10.00;;;;;;;32.69;20.95;99980.50;5025767;28;20022;-81
2021/09/03 11:24:08;;;;;;;12.65;4.50;;;;;;;32.75;21.03;99973.78;5022217;28;20035;-74